createdAt,value
2023-03-18T00:02:03.452Z,10.14
2023-03-18T00:04:07.477Z,10.15
2023-03-18T00:06:16.408Z,10.15
2023-03-18T00:08:20.903Z,10.16
2023-03-18T00:10:25.365Z,10.16
2023-03-18T00:12:29.658Z,10.15
2023-03-18T00:14:36.900Z,10.17
2023-03-18T00:16:41.759Z,10.16
2023-03-18T00:18:45.631Z,10.15
2023-03-18T00:20:49.638Z,10.14
2023-03-18T00:22:53.547Z,10.14
2023-03-18T00:24:57.187Z,10.13
2023-03-18T00:27:01.193Z,10.13
2023-03-18T00:29:05.263Z,10.12
2023-03-18T00:31:14.062Z,10.10
2023-03-18T00:33:19.375Z,10.08
2023-03-18T00:35:24.039Z,10.05
2023-03-18T00:37:31.711Z,10.02
2023-03-18T00:39:38.110Z,10.01
2023-03-18T00:41:42.592Z,10.01
2023-03-18T00:43:52.822Z,10.01
2023-03-18T00:45:58.435Z,10.02
2023-03-18T00:48:04.084Z,10.03
2023-03-18T00:50:10.375Z,10.04
2023-03-18T00:52:14.778Z,10.05
2023-03-18T00:54:21.081Z,10.07
2023-03-18T00:56:27.323Z,10.08
2023-03-18T00:58:31.974Z,10.10
2023-03-18T01:00:36.290Z,10.11
2023-03-18T01:02:41.463Z,10.12
2023-03-18T01:04:47.248Z,10.14
2023-03-18T01:06:51.556Z,10.16
2023-03-18T01:08:55.756Z,10.16
2023-03-18T01:11:01.089Z,10.18
2023-03-18T01:13:05.162Z,10.18
2023-03-18T01:15:10.940Z,10.16
2023-03-18T01:17:14.807Z,10.16
2023-03-18T01:19:18.849Z,10.18
2023-03-18T01:21:24.255Z,10.15
2023-03-18T01:23:32.783Z,10.14
2023-03-18T01:25:36.834Z,10.12
2023-03-18T01:27:40.938Z,10.11
2023-03-18T01:29:46.631Z,10.10
2023-03-18T01:31:57.172Z,10.08
2023-03-18T01:34:02.350Z,10.07
2023-03-18T01:36:15.816Z,10.07
2023-03-18T01:38:26.150Z,10.06
2023-03-18T01:40:30.788Z,10.05
2023-03-18T01:42:36.189Z,10.06
2023-03-18T01:44:40.283Z,10.07
2023-03-18T01:46:45.893Z,10.06
2023-03-18T01:48:52.606Z,10.03
2023-03-18T01:51:00.725Z,10.04
2023-03-18T01:53:09.904Z,10.03
2023-03-18T01:55:19.539Z,10.01
2023-03-18T01:57:27.390Z,10.02
2023-03-18T01:59:34.459Z,10.04
2023-03-18T02:01:45.269Z,10.04
2023-03-18T02:03:51.364Z,10.05
2023-03-18T02:05:55.740Z,10.04
2023-03-18T02:07:59.965Z,10.05
2023-03-18T02:12:15.008Z,10.01
2023-03-18T02:14:21.987Z,10.01
2023-03-18T02:16:32.762Z,10.02
2023-03-18T02:18:43.283Z,10.01
2023-03-18T02:21:07.526Z,10.00
2023-03-18T02:23:20.956Z,9.96
2023-03-18T02:25:37.782Z,9.94
2023-03-18T02:27:46.861Z,9.92
2023-03-18T02:29:55.150Z,9.91
2023-03-18T02:32:02.211Z,9.91
2023-03-18T02:34:09.111Z,9.91
2023-03-18T02:36:19.576Z,9.90
2023-03-18T02:38:23.704Z,9.89
2023-03-18T02:40:33.602Z,9.90
2023-03-18T02:42:40.121Z,9.88
2023-03-18T02:44:48.464Z,9.88
2023-03-18T02:47:26.170Z,9.88
2023-03-18T02:49:32.936Z,9.87
2023-03-18T02:51:38.577Z,9.87
2023-03-18T02:53:42.176Z,9.86
2023-03-18T02:55:47.058Z,9.85
2023-03-18T02:57:51.582Z,9.86
2023-03-18T02:59:58.449Z,9.86
2023-03-18T03:02:03.305Z,9.83
2023-03-18T03:04:09.438Z,9.86
2023-03-18T03:06:13.884Z,9.86
2023-03-18T03:08:17.375Z,9.85
2023-03-18T03:10:24.682Z,9.83
2023-03-18T03:12:28.775Z,9.83
2023-03-18T03:14:33.780Z,9.81
2023-03-18T03:16:39.972Z,9.78
2023-03-18T03:18:43.656Z,9.79
2023-03-18T03:20:47.167Z,9.80
2023-03-18T03:22:50.565Z,9.80
2023-03-18T03:24:54.437Z,9.81
2023-03-18T03:26:57.973Z,9.80
2023-03-18T03:29:01.661Z,9.78
2023-03-18T03:31:05.375Z,9.78
2023-03-18T03:33:10.195Z,9.80
2023-03-18T03:35:14.711Z,9.81
2023-03-18T03:37:18.937Z,9.82
2023-03-18T03:39:23.818Z,9.81
2023-03-18T03:41:28.418Z,9.81
2023-03-18T03:43:30.673Z,9.83
2023-03-18T03:45:34.816Z,9.85
2023-03-18T03:47:38.332Z,9.86
2023-03-18T03:49:43.734Z,9.86
2023-03-18T03:51:47.425Z,9.88
2023-03-18T03:53:51.072Z,9.87
2023-03-18T03:55:57.366Z,9.85
2023-03-18T03:58:02.394Z,9.82
2023-03-18T04:00:13.656Z,9.78
2023-03-18T04:02:24.482Z,9.78
2023-03-18T04:04:27.993Z,9.78
2023-03-18T04:06:32.816Z,9.78
2023-03-18T04:08:37.960Z,9.77
2023-03-18T04:10:41.520Z,9.78
2023-03-18T04:12:47.545Z,9.78
2023-03-18T04:14:51.939Z,9.77
2023-03-18T04:16:58.224Z,9.76
2023-03-18T04:19:01.532Z,9.75
2023-03-18T04:21:06.091Z,9.73
2023-03-18T04:23:18.136Z,9.74
2023-03-18T04:25:22.263Z,9.74
2023-03-18T04:27:30.125Z,9.69
2023-03-18T04:29:36.044Z,9.65
2023-03-18T04:31:39.807Z,9.65
2023-03-18T04:33:44.994Z,9.65
2023-03-18T04:35:49.539Z,9.67
2023-03-18T04:37:55.103Z,9.69
2023-03-18T04:40:01.663Z,9.68
2023-03-18T04:42:07.528Z,9.66
2023-03-18T04:44:11.173Z,9.64
2023-03-18T04:46:19.485Z,9.63
2023-03-18T04:48:24.645Z,9.62
2023-03-18T04:50:32.341Z,9.60
2023-03-18T04:52:35.980Z,9.59
2023-03-18T04:54:39.986Z,9.58
2023-03-18T04:56:45.291Z,9.57
2023-03-18T04:58:49.175Z,9.54
2023-03-18T05:00:57.367Z,9.52
2023-03-18T05:03:07.522Z,9.49
2023-03-18T05:05:12.082Z,9.47
2023-03-18T05:07:21.901Z,9.44
2023-03-18T05:09:34.461Z,9.41
2023-03-18T05:11:38.500Z,9.38
2023-03-18T05:14:01.221Z,9.32
2023-03-18T05:16:10.604Z,9.28
2023-03-18T05:18:16.791Z,9.25
2023-03-18T05:20:24.182Z,9.23
2023-03-18T05:22:28.706Z,9.21
2023-03-18T05:24:41.729Z,9.16
2023-03-18T05:26:46.200Z,9.10
2023-03-18T05:28:51.036Z,9.07
2023-03-18T05:31:08.955Z,9.04
2023-03-18T05:33:17.505Z,9.02
2023-03-18T05:35:30.643Z,8.91
2023-03-18T05:37:34.809Z,8.78
2023-03-18T05:39:44.976Z,8.73
2023-03-18T05:41:52.762Z,8.71
2023-03-18T05:44:04.460Z,8.70
2023-03-18T05:46:14.473Z,8.66
2023-03-18T05:48:34.499Z,8.63
2023-03-18T05:50:44.296Z,8.59
2023-03-18T05:52:52.220Z,8.56
2023-03-18T05:54:59.237Z,8.56
2023-03-18T05:57:08.196Z,8.55
2023-03-18T05:59:14.196Z,8.55
2023-03-18T06:01:34.439Z,8.51
2023-03-18T06:03:39.214Z,8.49
2023-03-18T06:05:43.563Z,8.46
2023-03-18T06:07:47.681Z,8.46
2023-03-18T06:09:52.685Z,8.46
2023-03-18T06:11:57.614Z,8.43
2023-03-18T06:14:01.455Z,8.35
2023-03-18T06:16:06.813Z,8.29
2023-03-18T06:18:12.783Z,8.32
2023-03-18T06:20:19.179Z,8.34
2023-03-18T06:22:23.410Z,8.37
2023-03-18T06:24:28.815Z,8.41
2023-03-18T06:26:33.451Z,8.42
2023-03-18T06:28:38.702Z,8.34
2023-03-18T06:30:46.984Z,8.33
2023-03-18T06:32:51.090Z,8.35
2023-03-18T06:34:57.202Z,8.37
2023-03-18T06:37:01.503Z,8.40
2023-03-18T06:39:06.048Z,8.42
2023-03-18T06:41:13.381Z,8.45
2023-03-18T06:43:28.404Z,8.49
2023-03-18T06:45:34.698Z,8.51
2023-03-18T06:47:43.214Z,8.51
2023-03-18T06:49:47.230Z,8.50
2023-03-18T06:51:58.056Z,8.48
2023-03-18T06:54:02.064Z,8.48
2023-03-18T06:56:10.064Z,8.48
2023-03-18T06:58:27.306Z,8.46
2023-03-18T07:00:41.929Z,8.46
2023-03-18T07:02:50.995Z,8.45
2023-03-18T07:04:55.843Z,8.44
2023-03-18T07:07:01.881Z,8.47
2023-03-18T07:09:05.981Z,8.49
2023-03-18T07:11:09.743Z,8.49
2023-03-18T07:13:15.943Z,8.53
2023-03-18T07:15:21.797Z,8.60
2023-03-18T07:17:27.915Z,8.69
2023-03-18T07:19:34.792Z,8.75
2023-03-18T07:21:39.739Z,8.81
2023-03-18T07:23:45.198Z,8.87
2023-03-18T07:25:49.157Z,8.94
2023-03-18T07:27:56.898Z,9.00
2023-03-18T07:30:02.150Z,9.07
2023-03-18T07:32:06.759Z,9.11
2023-03-18T07:34:11.259Z,9.16
2023-03-18T07:36:15.886Z,9.22
2023-03-18T07:38:20.310Z,9.26
2023-03-18T07:40:26.219Z,9.32
2023-03-18T07:42:30.288Z,9.42
2023-03-18T07:44:34.085Z,9.52
2023-03-18T07:46:38.202Z,9.59
2023-03-18T07:48:42.060Z,9.61
2023-03-18T07:50:46.193Z,9.63
2023-03-18T07:52:50.087Z,9.60
2023-03-18T07:54:53.945Z,9.59
2023-03-18T07:56:58.882Z,9.64
2023-03-18T07:59:02.230Z,9.69
2023-03-18T08:01:06.367Z,9.78
2023-03-18T08:03:10.735Z,9.85
2023-03-18T08:05:16.013Z,9.93
2023-03-18T08:07:19.478Z,10.04
2023-03-18T08:09:23.207Z,10.14
2023-03-18T08:11:26.476Z,10.29
2023-03-18T08:13:31.223Z,10.42
2023-03-18T08:15:35.261Z,10.56
2023-03-18T08:17:39.000Z,10.69
2023-03-18T08:19:43.307Z,10.79
2023-03-18T08:21:48.570Z,10.86
2023-03-18T08:23:52.306Z,10.91
2023-03-18T08:25:56.505Z,10.97
2023-03-18T08:28:00.132Z,11.04
2023-03-18T08:30:07.285Z,11.13
2023-03-18T08:32:12.311Z,11.26
2023-03-18T08:34:17.697Z,11.38
2023-03-18T08:36:21.216Z,11.52
2023-03-18T08:38:24.950Z,11.66
2023-03-18T08:40:28.323Z,11.81
2023-03-18T08:42:31.773Z,11.94
2023-03-18T08:44:35.173Z,12.09
2023-03-18T08:46:40.481Z,12.19
2023-03-18T08:48:44.681Z,12.22
2023-03-18T08:50:49.037Z,12.20
2023-03-18T08:52:52.577Z,12.17
2023-03-18T08:54:56.367Z,12.15
2023-03-18T08:57:01.108Z,12.11
2023-03-18T08:59:04.945Z,12.08
2023-03-18T09:01:10.152Z,12.06
2023-03-18T09:03:17.135Z,12.05
2023-03-18T09:05:20.864Z,12.02
2023-03-18T09:07:24.404Z,12.00
2023-03-18T09:09:40.961Z,11.99
2023-03-18T09:11:48.038Z,12.02
2023-03-18T09:13:52.421Z,12.04
2023-03-18T09:15:56.009Z,12.04
2023-03-18T09:18:11.026Z,12.05
2023-03-18T09:20:18.550Z,12.05
2023-03-18T09:22:22.135Z,12.03
2023-03-18T09:24:25.541Z,12.00
2023-03-18T09:26:29.175Z,12.02
2023-03-18T09:28:32.725Z,12.03
2023-03-18T09:30:36.758Z,12.06
2023-03-18T09:32:40.580Z,12.10
2023-03-18T09:34:44.711Z,12.14
2023-03-18T09:36:51.343Z,12.21
2023-03-18T09:38:54.981Z,12.28
2023-03-18T09:41:06.986Z,12.32
2023-03-18T09:43:29.749Z,12.33
2023-03-18T09:45:39.004Z,12.36
2023-03-18T09:47:57.613Z,12.35
2023-03-18T09:50:14.553Z,12.35
2023-03-18T09:52:25.147Z,12.35
2023-03-18T09:54:36.848Z,12.31
2023-03-18T09:56:41.168Z,12.17
2023-03-18T09:58:51.507Z,12.10
2023-03-18T10:00:59.730Z,12.05
2023-03-18T10:03:08.473Z,11.96
2023-03-18T10:05:18.936Z,11.89
2023-03-18T10:07:28.792Z,11.85
2023-03-18T10:09:39.981Z,11.80
2023-03-18T10:11:45.574Z,11.77
2023-03-18T10:14:01.995Z,11.75
2023-03-18T10:16:07.979Z,11.76
2023-03-18T10:18:17.775Z,11.82
2023-03-18T10:20:27.612Z,11.88
2023-03-18T10:22:57.975Z,11.90
2023-03-18T10:25:07.719Z,11.91
2023-03-18T10:27:20.625Z,11.91
2023-03-18T10:29:36.154Z,11.93
2023-03-18T10:31:51.253Z,11.97
2023-03-18T10:33:59.798Z,11.99
2023-03-18T10:36:12.641Z,11.99
2023-03-18T10:38:24.020Z,12.04
2023-03-18T10:40:37.343Z,12.06
2023-03-18T10:42:43.129Z,12.09
2023-03-18T10:44:48.190Z,12.09
2023-03-18T10:47:02.360Z,12.07
2023-03-18T10:49:13.508Z,12.11
2023-03-18T10:51:22.849Z,12.13
2023-03-18T10:53:33.123Z,12.13
2023-03-18T10:55:41.288Z,12.08
2023-03-18T10:57:45.325Z,11.99
2023-03-18T10:59:49.603Z,11.91
2023-03-18T11:01:58.790Z,11.88
2023-03-18T11:04:06.465Z,11.87
2023-03-18T11:06:20.280Z,11.92
2023-03-18T11:08:38.606Z,11.97
2023-03-18T11:10:47.340Z,12.02
2023-03-18T11:12:50.732Z,12.01
2023-03-18T11:14:54.933Z,11.96
2023-03-18T11:17:01.013Z,11.91
2023-03-18T11:19:22.254Z,11.92
2023-03-18T11:21:28.936Z,11.91
2023-03-18T11:23:49.317Z,11.89
2023-03-18T11:25:57.185Z,11.83
2023-03-18T11:28:05.786Z,11.83
2023-03-18T11:30:33.224Z,11.82
2023-03-18T11:32:38.185Z,11.81
2023-03-18T11:34:42.171Z,11.85
2023-03-18T11:36:55.806Z,11.88
2023-03-18T11:39:05.709Z,11.93
2023-03-18T11:41:13.725Z,11.99
2023-03-18T11:43:21.037Z,12.00
2023-03-18T11:45:36.315Z,11.98
2023-03-18T11:47:40.526Z,11.93
2023-03-18T11:49:46.611Z,11.89
2023-03-18T11:51:57.103Z,11.83
2023-03-18T11:54:14.345Z,11.83
2023-03-18T11:56:27.495Z,11.80
2023-03-18T11:58:54.915Z,11.73
2023-03-18T12:01:07.991Z,11.62
2023-03-18T12:03:46.772Z,11.45
2023-03-18T12:06:04.240Z,11.22
2023-03-18T12:08:16.670Z,10.95
2023-03-18T12:10:28.573Z,10.68
2023-03-18T12:12:49.685Z,10.48
2023-03-18T12:14:59.936Z,10.32
2023-03-18T12:17:19.082Z,10.22
2023-03-18T12:19:37.881Z,10.10
2023-03-18T12:22:04.514Z,9.94
2023-03-18T12:24:28.161Z,9.76
2023-03-18T12:26:41.823Z,9.64
2023-03-18T12:29:11.927Z,9.55
2023-03-18T12:31:41.541Z,9.46
2023-03-18T12:33:56.499Z,9.40
2023-03-18T12:36:12.702Z,9.36
2023-03-18T12:38:43.971Z,9.30
2023-03-18T12:41:00.380Z,9.29
2023-03-18T12:43:26.410Z,9.26
2023-03-18T12:45:37.611Z,9.23
2023-03-18T12:47:48.207Z,9.18
2023-03-18T12:49:57.810Z,9.13
2023-03-18T12:52:07.214Z,9.09
2023-03-18T12:54:20.449Z,9.08
2023-03-18T12:56:27.716Z,9.07
2023-03-18T12:58:39.283Z,9.10
2023-03-18T13:00:49.673Z,9.13
2023-03-18T13:03:07.250Z,9.15
2023-03-18T13:05:34.896Z,9.23
2023-03-18T13:07:44.369Z,9.28
2023-03-18T13:09:52.912Z,9.34
2023-03-18T13:12:09.793Z,9.40
2023-03-18T13:14:23.820Z,9.48
2023-03-18T13:16:28.960Z,9.58
2023-03-18T13:18:40.220Z,9.67
2023-03-18T13:20:44.692Z,9.66
2023-03-18T13:23:07.517Z,9.62
2023-03-18T13:25:21.243Z,9.57
2023-03-18T13:27:49.716Z,9.55
2023-03-18T13:30:03.805Z,9.49
2023-03-18T13:32:26.285Z,9.43
2023-03-18T13:35:04.393Z,9.38
2023-03-18T13:37:30.879Z,9.36
2023-03-18T13:40:11.756Z,9.41
2023-03-18T13:42:23.420Z,9.53
2023-03-18T13:44:36.107Z,9.60
2023-03-18T13:46:43.981Z,9.71
2023-03-18T13:48:48.318Z,9.78
2023-03-18T13:50:53.295Z,9.76
2023-03-18T13:52:59.890Z,9.74
2023-03-18T13:55:07.085Z,9.73
2023-03-18T13:57:35.986Z,9.63
2023-03-18T13:59:48.737Z,9.48
2023-03-18T14:01:53.935Z,9.38
2023-03-18T14:04:03.257Z,9.32
2023-03-18T14:06:27.208Z,9.29
2023-03-18T14:08:49.948Z,9.27
2023-03-18T14:11:39.659Z,9.29
2023-03-18T14:13:43.574Z,9.24
2023-03-18T14:15:47.321Z,9.24
2023-03-18T14:17:57.222Z,9.27
2023-03-18T14:20:10.397Z,9.31
2023-03-18T14:22:27.487Z,9.39
2023-03-18T14:24:31.219Z,9.43
2023-03-18T14:26:35.872Z,9.51
2023-03-18T14:28:45.719Z,9.62
2023-03-18T14:30:59.051Z,9.74
2023-03-18T14:33:06.296Z,9.80
2023-03-18T14:35:28.696Z,9.82
2023-03-18T14:37:34.319Z,9.89
2023-03-18T14:39:42.482Z,9.90
2023-03-18T14:41:47.354Z,9.86
2023-03-18T14:44:04.821Z,9.82
2023-03-18T14:46:18.264Z,9.74
2023-03-18T14:48:29.622Z,9.64
2023-03-18T14:50:44.177Z,9.54
2023-03-18T14:52:56.097Z,9.46
2023-03-18T14:55:03.787Z,9.37
2023-03-18T14:57:07.315Z,9.28
2023-03-18T14:59:17.513Z,9.22
2023-03-18T15:01:26.811Z,9.17
2023-03-18T15:03:34.295Z,9.13
2023-03-18T15:05:41.094Z,9.12
2023-03-18T15:07:45.501Z,9.14
2023-03-18T15:09:51.752Z,9.20
2023-03-18T15:11:56.688Z,9.27
2023-03-18T15:14:00.794Z,9.34
2023-03-18T15:16:06.416Z,9.41
2023-03-18T15:18:23.293Z,9.44
2023-03-18T15:20:29.820Z,9.54
2023-03-18T15:22:35.777Z,9.63
2023-03-18T15:24:39.560Z,9.65
2023-03-18T15:26:44.296Z,9.64
2023-03-18T15:28:49.009Z,9.59
2023-03-18T15:30:56.185Z,9.51
2023-03-18T15:33:08.841Z,9.45
2023-03-18T15:35:18.625Z,9.49
2023-03-18T15:37:33.817Z,9.52
2023-03-18T15:39:39.212Z,9.55
2023-03-18T15:41:42.904Z,9.59
2023-03-18T15:43:48.272Z,9.65
2023-03-18T15:45:57.771Z,9.70
2023-03-18T15:48:08.489Z,9.75
2023-03-18T15:50:25.741Z,9.78
2023-03-18T15:52:33.633Z,9.75
2023-03-18T15:54:41.879Z,9.71
2023-03-18T15:56:47.530Z,9.64
2023-03-18T15:58:59.749Z,9.58
2023-03-18T16:01:04.152Z,9.57
2023-03-18T16:03:19.527Z,9.64
2023-03-18T16:05:26.271Z,9.68
2023-03-18T16:07:33.369Z,9.68
2023-03-18T16:09:37.077Z,9.69
2023-03-18T16:11:41.568Z,9.68
2023-03-18T16:13:46.330Z,9.69
2023-03-18T16:15:50.189Z,9.70
2023-03-18T16:17:55.292Z,9.77
2023-03-18T16:19:58.689Z,9.87
2023-03-18T16:22:02.638Z,9.93
2023-03-18T16:24:07.782Z,9.94
2023-03-18T16:26:17.864Z,9.87
2023-03-18T16:28:23.076Z,9.78
2023-03-18T16:30:29.328Z,9.72
2023-03-18T16:32:33.245Z,9.69
2023-03-18T16:34:37.229Z,9.66
2023-03-18T16:36:41.075Z,9.60
2023-03-18T16:38:48.014Z,9.55
2023-03-18T16:40:54.902Z,9.48
2023-03-18T16:42:59.237Z,9.41
2023-03-18T16:45:05.396Z,9.30
2023-03-18T16:47:23.102Z,9.19
2023-03-18T16:49:31.230Z,9.10
2023-03-18T16:51:35.131Z,9.07
2023-03-18T16:53:39.436Z,9.04
2023-03-18T16:55:42.988Z,8.99
2023-03-18T16:57:51.799Z,8.95
2023-03-18T16:59:56.826Z,8.92
2023-03-18T17:02:00.686Z,8.89
2023-03-18T17:04:14.468Z,8.84
2023-03-18T17:06:18.278Z,8.83
2023-03-18T17:08:22.983Z,8.81
2023-03-18T17:10:28.045Z,8.83
2023-03-18T17:12:31.335Z,8.79
2023-03-18T17:14:38.922Z,8.75
2023-03-18T17:16:43.588Z,8.67
2023-03-18T17:18:47.426Z,8.58
2023-03-18T17:20:51.913Z,8.47
2023-03-18T17:22:56.797Z,8.37
2023-03-18T17:25:02.434Z,8.26
2023-03-18T17:27:06.105Z,8.21
2023-03-18T17:29:20.308Z,8.20
2023-03-18T17:31:25.911Z,8.23
2023-03-18T17:33:32.220Z,8.30
2023-03-18T17:35:37.039Z,8.33
2023-03-18T17:37:40.803Z,8.38
2023-03-18T17:39:44.893Z,8.39
2023-03-18T17:41:48.935Z,8.38
2023-03-18T17:43:52.642Z,8.36
2023-03-18T17:45:57.035Z,8.33
2023-03-18T17:48:16.283Z,8.31
2023-03-18T17:50:21.367Z,8.25
2023-03-18T17:52:25.846Z,8.22
2023-03-18T17:54:31.951Z,8.18
2023-03-18T17:56:38.287Z,8.16
2023-03-18T17:58:44.949Z,8.14
2023-03-18T18:00:49.257Z,8.13
2023-03-18T18:02:54.842Z,8.12
2023-03-18T18:05:00.430Z,8.08
2023-03-18T18:07:06.084Z,8.05
2023-03-18T18:09:13.540Z,8.00
2023-03-18T18:11:22.133Z,7.95
2023-03-18T18:13:26.511Z,7.89
2023-03-18T18:15:30.445Z,7.85
2023-03-18T18:17:34.316Z,7.78
2023-03-18T18:19:38.418Z,7.75
2023-03-18T18:21:44.738Z,7.71
2023-03-18T18:23:49.354Z,7.66
2023-03-18T18:25:53.857Z,7.62
2023-03-18T18:27:57.738Z,7.60
2023-03-18T18:30:01.368Z,7.59
2023-03-18T18:32:05.674Z,7.55
2023-03-18T18:34:09.800Z,7.52
2023-03-18T18:36:14.427Z,7.48
2023-03-18T18:38:19.761Z,7.45
2023-03-18T18:40:23.957Z,7.42
2023-03-18T18:42:28.629Z,7.39
2023-03-18T18:44:32.641Z,7.36
2023-03-18T18:46:36.647Z,7.35
2023-03-18T18:48:41.250Z,7.31
2023-03-18T18:50:45.922Z,7.28
2023-03-18T18:52:49.902Z,7.27
2023-03-18T18:54:54.983Z,7.25
2023-03-18T18:56:59.113Z,7.25
2023-03-18T18:59:05.617Z,7.23
2023-03-18T19:01:09.731Z,7.22
2023-03-18T19:03:16.344Z,7.18
2023-03-18T19:05:20.256Z,7.14
2023-03-18T19:07:26.632Z,7.13
2023-03-18T19:09:30.530Z,7.08
2023-03-18T19:11:35.866Z,7.07
2023-03-18T19:13:39.830Z,7.03
2023-03-18T19:15:43.559Z,7.01
2023-03-18T19:17:48.501Z,7.00
2023-03-18T19:19:53.676Z,6.97
2023-03-18T19:21:59.112Z,6.95
2023-03-18T19:24:02.778Z,6.93
2023-03-18T19:26:07.692Z,6.92
2023-03-18T19:28:21.300Z,6.90
2023-03-18T19:30:25.995Z,6.89
2023-03-18T19:32:29.657Z,6.86
2023-03-18T19:34:36.093Z,6.85
2023-03-18T19:36:42.806Z,6.81
2023-03-18T19:38:46.627Z,6.78
2023-03-18T19:40:53.027Z,6.75
2023-03-18T19:42:56.595Z,6.71
2023-03-18T19:45:02.087Z,6.69
2023-03-18T19:47:05.719Z,6.65
2023-03-18T19:49:22.565Z,6.62
2023-03-18T19:51:26.232Z,6.59
2023-03-18T19:53:30.432Z,6.56
2023-03-18T19:55:34.077Z,6.56
2023-03-18T19:57:38.041Z,6.55
2023-03-18T19:59:42.431Z,6.52
2023-03-18T20:01:48.178Z,6.50
2023-03-18T20:03:55.580Z,6.48
2023-03-18T20:06:00.499Z,6.48
2023-03-18T20:08:04.642Z,6.44
2023-03-18T20:10:11.281Z,6.44
2023-03-18T20:12:23.037Z,6.42
2023-03-18T20:14:28.914Z,6.41
2023-03-18T20:16:32.787Z,6.38
2023-03-18T20:18:38.800Z,6.38
2023-03-18T20:20:44.578Z,6.38
2023-03-18T20:22:53.117Z,6.37
2023-03-18T20:24:58.944Z,6.36
2023-03-18T20:27:02.603Z,6.33
2023-03-18T20:29:24.162Z,6.31
2023-03-18T20:31:30.104Z,6.29
2023-03-18T20:33:33.990Z,6.29
2023-03-18T20:35:42.466Z,6.25
2023-03-18T20:37:47.935Z,6.24
2023-03-18T20:39:52.501Z,6.22
2023-03-18T20:41:57.376Z,6.22
2023-03-18T20:44:01.449Z,6.21
2023-03-18T20:46:05.929Z,6.20
2023-03-18T20:48:10.258Z,6.17
2023-03-18T20:50:15.969Z,6.16
2023-03-18T20:52:27.360Z,6.15
2023-03-18T20:54:31.663Z,6.14
2023-03-18T20:56:35.578Z,6.13
2023-03-18T20:58:39.296Z,6.09
2023-03-18T21:00:43.842Z,6.08
2023-03-18T21:02:49.918Z,6.05
2023-03-18T21:04:54.502Z,6.04
2023-03-18T21:06:58.606Z,6.01
2023-03-18T21:09:05.073Z,5.98
2023-03-18T21:11:22.822Z,5.97
2023-03-18T21:13:29.791Z,5.95
2023-03-18T21:15:34.028Z,5.95
2023-03-18T21:17:39.484Z,5.94
2023-03-18T21:19:43.201Z,5.93
2023-03-18T21:21:47.057Z,5.92
2023-03-18T21:23:51.260Z,5.92
2023-03-18T21:26:01.456Z,5.92
2023-03-18T21:28:05.335Z,5.92
2023-03-18T21:30:11.129Z,5.93
2023-03-18T21:32:23.482Z,5.91
2023-03-18T21:34:27.213Z,5.91
2023-03-18T21:36:31.366Z,5.91
2023-03-18T21:38:35.794Z,5.92
2023-03-18T21:40:39.891Z,5.92
2023-03-18T21:42:46.629Z,5.91
2023-03-18T21:44:52.088Z,5.90
2023-03-18T21:46:56.501Z,5.90
2023-03-18T21:49:01.150Z,5.91
2023-03-18T21:51:05.383Z,5.90
2023-03-18T21:53:13.623Z,5.89
2023-03-18T21:55:18.738Z,5.89
2023-03-18T21:57:24.917Z,5.90
2023-03-18T21:59:30.140Z,5.90
2023-03-18T22:01:34.725Z,5.91
2023-03-18T22:03:39.255Z,5.92
2023-03-18T22:05:43.414Z,5.90
2023-03-18T22:07:47.919Z,5.90
2023-03-18T22:09:52.243Z,5.88
2023-03-18T22:11:56.974Z,5.88
2023-03-18T22:14:01.320Z,5.86
2023-03-18T22:16:07.817Z,5.86
2023-03-18T22:18:12.506Z,5.85
2023-03-18T22:20:17.240Z,5.84
2023-03-18T22:22:22.368Z,5.82
2023-03-18T22:24:26.001Z,5.81
2023-03-18T22:26:29.777Z,5.82
2023-03-18T22:28:33.616Z,5.82
2023-03-18T22:30:37.437Z,5.81
2023-03-18T22:32:44.972Z,5.79
2023-03-18T22:34:48.664Z,5.80
2023-03-18T22:36:52.338Z,5.80
2023-03-18T22:38:55.938Z,5.79
2023-03-18T22:41:00.005Z,5.76
2023-03-18T22:43:05.579Z,5.74
2023-03-18T22:45:24.164Z,5.70
2023-03-18T22:47:31.490Z,5.68
2023-03-18T22:49:36.725Z,5.63
2023-03-18T22:51:42.432Z,5.60
2023-03-18T22:53:50.738Z,5.58
2023-03-18T22:55:56.805Z,5.55
2023-03-18T22:58:00.558Z,5.54
2023-03-18T23:00:07.665Z,5.51
2023-03-18T23:02:17.377Z,5.50
2023-03-18T23:04:21.104Z,5.47
2023-03-18T23:06:27.443Z,5.46
2023-03-18T23:08:31.563Z,5.42
2023-03-18T23:10:35.550Z,5.42
2023-03-18T23:12:39.484Z,5.40
2023-03-18T23:14:43.213Z,5.37
2023-03-18T23:16:46.862Z,5.34
2023-03-18T23:18:51.926Z,5.34
2023-03-18T23:20:56.454Z,5.32
2023-03-18T23:23:01.533Z,5.32
2023-03-18T23:25:06.976Z,5.33
2023-03-18T23:27:11.113Z,5.33
2023-03-18T23:29:14.859Z,5.34
2023-03-18T23:31:19.180Z,5.33
2023-03-18T23:33:23.262Z,5.31
2023-03-18T23:35:27.423Z,5.29
2023-03-18T23:37:31.717Z,5.27
2023-03-18T23:39:43.043Z,5.23
2023-03-18T23:41:46.938Z,5.22
2023-03-18T23:43:51.183Z,5.20
2023-03-18T23:45:55.573Z,5.16
2023-03-18T23:47:59.379Z,5.14
2023-03-18T23:50:03.088Z,5.12
2023-03-18T23:52:09.309Z,5.09
2023-03-18T23:54:13.276Z,5.08
2023-03-18T23:56:18.297Z,5.05
2023-03-18T23:58:21.814Z,5.04
